Time;durP1;ratioP1;P1;durP2;ratioP2;P2;SDS_P1;SDS_P2;PMS_P1;PMS_P2;Temp;Humidity;BMP_temperature;BMP_pressure;BME280_temperature;BME280_humidity;BME280_pressure;Samples;Min_cycle;Max_cycle;Signal;HPM_P1;HPM_P2
2023/04/23 00:01:17;;;;;;;;;4.00;3.00;;;;;14.73;50.19;100379.53;5060293;28;45239;-61
2023/04/23 00:03:43;;;;;;;;;5.25;2.75;;;;;14.70;50.02;100377.00;5060391;28;45269;-61
2023/04/23 00:06:09;;;;;;;;;3.00;2.75;;;;;14.67;49.89;100377.13;5042053;28;45273;-61
2023/04/23 00:08:38;;;;;;;;;2.50;0.75;;;;;14.66;49.96;100371.91;5060273;28;45479;-61
2023/04/23 00:11:05;;;;;;;;;3.75;3.00;;;;;14.62;49.91;100371.97;5059720;28;46133;-61
2023/04/23 00:13:30;;;;;;;;;3.25;3.25;;;;;14.58;49.59;100367.72;5060063;28;45248;-62
2023/04/23 00:15:56;;;;;;;;;2.75;2.50;;;;;14.54;49.83;100363.47;5060213;28;45272;-61
2023/04/23 00:18:21;;;;;;;;;4.00;3.00;;;;;14.54;49.80;100376.69;5060309;28;45220;-61
2023/04/23 00:20:47;;;;;;;;;2.50;2.50;;;;;14.51;50.26;100378.56;5059974;28;45368;-61
2023/04/23 00:23:12;;;;;;;;;2.00;2.00;;;;;14.47;49.80;100372.53;5060321;28;45264;-61
2023/04/23 00:25:37;;;;;;;;;5.00;4.25;;;;;14.49;50.18;100378.63;5060009;28;45256;-61
2023/04/23 00:28:03;;;;;;;;;3.50;3.00;;;;;14.49;50.27;100383.03;5059908;28;45407;-61
2023/04/23 00:30:28;;;;;;;;;3.25;3.25;;;;;14.45;49.91;100377.88;5041711;28;45569;-61
2023/04/23 00:32:54;;;;;;;;;6.50;4.50;;;;;14.43;50.05;100381.50;5060114;28;45309;-62
2023/04/23 00:35:19;;;;;;;;;6.00;4.75;;;;;14.41;50.42;100370.13;5058703;28;45421;-61
2023/04/23 00:37:45;;;;;;;;;3.00;2.00;;;;;14.37;50.13;100372.00;5059856;28;45450;-61
2023/04/23 00:40:10;;;;;;;;;8.25;6.00;;;;;14.37;50.24;100372.00;5059508;28;46464;-61
2023/04/23 00:42:37;;;;;;;;;4.25;4.25;;;;;14.37;50.49;100376.44;5060007;28;45309;-61
2023/04/23 00:45:04;;;;;;;;;8.00;4.75;;;;;14.32;50.50;100378.38;5041505;28;45324;-61
2023/04/23 00:47:30;;;;;;;;;4.50;3.25;;;;;14.32;50.14;100392.44;5061881;28;45312;-62
2023/04/23 00:49:57;;;;;;;;;6.25;4.75;;;;;14.28;50.21;100381.13;5063154;28;45306;-61
2023/04/23 00:52:22;;;;;;;;;4.25;4.25;;;;;14.24;50.60;100371.56;5062140;28;45791;-61
2023/04/23 00:54:47;;;;;;;;;3.00;1.75;;;;;14.23;50.19;100383.06;5063244;28;45297;-61
2023/04/23 00:57:13;;;;;;;;;4.25;4.25;;;;;14.24;50.60;100379.50;5063286;28;45224;-61
2023/04/23 00:59:39;;;;;;;;;8.25;4.00;;;;;14.22;50.59;100368.13;5061704;28;47184;-61
2023/04/23 01:02:04;;;;;;;;;5.00;4.00;;;;;14.19;50.52;100368.25;5045265;28;45439;-61
2023/04/23 01:04:31;;;;;;;;;6.75;5.00;;;;;14.20;50.72;100358.50;5063363;28;45284;-61
2023/04/23 01:06:57;;;;;;;;;7.50;5.75;;;;;14.10;50.74;100348.28;5061812;28;45512;-61
2023/04/23 01:09:26;;;;;;;;;5.00;4.75;;;;;14.17;50.63;100358.63;5062503;28;46205;-61
2023/04/23 01:11:52;;;;;;;;;5.75;4.00;;;;;14.14;50.52;100354.31;5044908;28;45294;-61
2023/04/23 01:14:17;;;;;;;;;7.75;5.00;;;;;14.12;50.48;100353.50;5062635;28;45343;-61
2023/04/23 01:16:43;;;;;;;;;5.50;4.75;;;;;14.09;50.61;100351.84;5063161;28;45366;-61
2023/04/23 01:19:09;;;;;;;;;7.00;5.75;;;;;14.09;50.45;100361.56;5062667;28;51980;-61
2023/04/23 01:21:36;;;;;;;;;5.50;4.25;;;;;14.07;50.78;100352.81;5062958;28;45285;-61
2023/04/23 01:24:03;;;;;;;;;5.25;3.75;;;;;14.06;50.68;100345.78;5044724;28;45351;-61
2023/04/23 01:26:28;;;;;;;;;5.75;4.25;;;;;13.94;50.79;100326.81;5062927;28;45500;-61
2023/04/23 01:28:54;;;;;;;;;5.00;5.00;;;;;13.99;50.76;100342.50;5044175;28;47696;-62
2023/04/23 01:31:21;;;;;;;;;5.00;4.50;;;;;14.00;50.62;100340.72;5062957;28;45233;-61
2023/04/23 01:33:49;;;;;;;;;4.75;4.50;;;;;13.95;51.17;100333.81;5044533;28;45245;-61
2023/04/23 01:36:15;;;;;;;;;8.50;5.00;;;;;13.91;51.01;100328.69;5062552;28;45404;-61
2023/04/23 01:38:41;;;;;;;;;6.75;5.00;;;;;13.90;51.14;100341.06;5062172;28;45277;-61
2023/04/23 01:41:06;;;;;;;;;7.00;5.00;;;;;13.88;50.94;100342.03;5062750;28;45363;-61
2023/04/23 01:43:32;;;;;;;;;4.50;4.50;;;;;13.86;51.45;100349.13;5062474;28;45341;-62
2023/04/23 01:45:58;;;;;;;;;6.00;4.75;;;;;13.83;51.58;100336.88;5044483;28;45461;-61
2023/04/23 01:48:24;;;;;;;;;4.25;4.25;;;;;13.77;51.40;100326.53;5027212;28;48056;-61
2023/04/23 01:50:50;;;;;;;;;7.75;5.00;;;;;13.77;51.25;100324.78;5062811;28;45285;-62
2023/04/23 01:53:16;;;;;;;;;8.00;5.00;;;;;13.72;50.95;100315.25;5044228;28;45496;-62
2023/04/23 01:55:44;;;;;;;;;5.50;4.00;;;;;13.69;51.61;100313.59;5062367;28;45239;-62
2023/04/23 01:58:09;;;;;;;;;7.50;5.00;;;;;13.67;51.57;100309.28;5060921;28;46141;-61
2023/04/23 02:00:35;;;;;;;;;4.75;4.00;;;;;13.64;51.78;100312.88;5062347;28;45257;-61
2023/04/23 02:03:01;;;;;;;;;9.75;5.50;;;;;13.63;51.47;100305.88;5062279;28;45576;-61
2023/04/23 02:05:28;;;;;;;;;7.00;7.00;;;;;13.58;51.28;100302.53;5044027;28;45459;-61
2023/04/23 02:07:53;;;;;;;;;8.00;5.00;;;;;13.58;51.47;100302.53;5044057;28;47159;-62
2023/04/23 02:10:19;;;;;;;;;5.00;5.00;;;;;13.57;51.75;100301.69;5061931;28;45323;-61
2023/04/23 02:12:46;;;;;;;;;6.00;5.00;;;;;13.56;51.56;100307.88;5043929;28;45524;-62
2023/04/23 02:15:12;;;;;;;;;5.25;4.75;;;;;13.52;51.70;100311.53;5043929;28;45494;-61
2023/04/23 02:17:38;;;;;;;;;6.00;6.00;;;;;13.51;51.88;100320.38;5061843;28;45359;-62
2023/04/23 02:20:05;;;;;;;;;4.75;3.25;;;;;13.48;51.67;100309.88;5044001;28;45611;-61
2023/04/23 02:22:30;;;;;;;;;4.25;4.25;;;;;13.47;52.08;100310.78;5061892;28;45307;-61
2023/04/23 02:24:57;;;;;;;;;5.75;4.00;;;;;13.39;52.18;100310.19;5061917;28;45334;-61
2023/04/23 02:27:22;;;;;;;;;6.75;5.75;;;;;13.39;52.07;100313.69;5043638;28;47587;-62
2023/04/23 02:29:48;;;;;;;;;4.50;4.00;;;;;13.37;52.28;100311.97;5061730;28;45351;-61
2023/04/23 02:32:14;;;;;;;;;6.25;4.50;;;;;13.31;52.17;100313.06;5043818;28;45338;-62
2023/04/23 02:34:39;;;;;;;;;4.00;3.00;;;;;13.29;51.96;100313.09;5061804;28;45194;-61
2023/04/23 02:37:05;;;;;;;;;4.00;3.50;;;;;13.24;52.01;100307.09;5043186;28;46891;-61
2023/04/23 02:39:30;;;;;;;;;4.25;4.25;;;;;13.23;52.13;100313.31;5061694;28;45217;-61
2023/04/23 02:41:57;;;;;;;;;4.50;4.50;;;;;13.20;52.45;100309.91;5061806;28;45225;-61
2023/04/23 02:44:23;;;;;;;;;5.00;3.00;;;;;13.15;52.25;100307.41;5043446;28;45474;-61
2023/04/23 02:46:48;;;;;;;;;7.00;4.75;;;;;13.10;52.51;100301.41;5061357;28;45210;-61
2023/04/23 02:49:14;;;;;;;;;6.50;5.00;;;;;13.11;52.25;100305.78;5061497;28;45272;-61
2023/04/23 02:51:39;;;;;;;;;4.00;3.00;;;;;13.03;52.32;100291.97;5061643;28;45234;-61
2023/04/23 02:54:04;;;;;;;;;4.00;4.00;;;;;12.99;52.58;100289.44;5061565;28;45351;-61
2023/04/23 02:56:30;;;;;;;;;3.00;3.00;;;;;12.98;52.40;100295.63;5061418;28;46084;-61
2023/04/23 02:58:55;;;;;;;;;8.75;8.00;;;;;12.93;52.42;100288.75;5061296;28;45346;-61
2023/04/23 03:01:21;;;;;;;;;5.75;5.75;;;;;12.91;52.43;100288.78;5061512;28;45234;-62
2023/04/23 03:03:46;;;;;;;;;5.75;5.75;;;;;12.89;52.60;100295.88;5043299;28;45302;-62
2023/04/23 03:06:12;;;;;;;;;5.00;4.75;;;;;12.84;52.59;100281.97;5059742;28;46156;-61
2023/04/23 03:08:37;;;;;;;;;5.50;5.00;;;;;12.85;52.69;100291.63;5061306;28;45284;-62
2023/04/23 03:11:03;;;;;;;;;7.50;6.25;;;;;12.84;52.63;100290.78;5061023;28;45377;-62
2023/04/23 03:13:28;;;;;;;;;5.00;5.00;;;;;12.82;52.53;100292.56;5060990;28;45357;-61
2023/04/23 03:15:54;;;;;;;;;6.75;6.50;;;;;12.78;53.00;100285.69;5061147;28;46225;-61
2023/04/23 03:18:19;;;;;;;;;6.50;6.25;;;;;12.78;52.82;100279.53;5060095;28;45502;-62
2023/04/23 03:20:45;;;;;;;;;7.50;7.50;;;;;12.74;52.95;100277.91;5061128;28;45742;-62
2023/04/23 03:23:10;;;;;;;;;8.75;8.00;;;;;12.74;52.79;100272.63;5059928;28;45194;-61
2023/04/23 03:25:35;;;;;;;;;7.25;7.25;;;;;12.71;52.76;100270.09;5060768;28;45181;-62
2023/04/23 03:28:01;;;;;;;;;8.00;7.50;;;;;12.67;52.76;100266.69;5042937;28;45403;-62
2023/04/23 03:30:27;;;;;;;;;9.50;7.25;;;;;12.69;52.68;100270.13;5061101;28;45171;-61
2023/04/23 03:32:55;;;;;;;;;10.50;7.00;;;;;12.61;52.95;100254.53;5060966;28;45548;-61
2023/04/23 03:35:21;;;;;;;;;8.75;7.00;;;;;12.63;52.83;100255.38;5060589;28;45521;-61
2023/04/23 03:37:47;;;;;;;;;7.25;6.00;;;;;12.59;52.65;100258.13;5060658;28;45358;-62
2023/04/23 03:40:12;;;;;;;;;5.25;5.00;;;;;12.57;52.92;100254.72;5042474;28;45375;-61
2023/04/23 03:42:38;;;;;;;;;7.00;7.00;;;;;12.57;53.01;100265.25;5060787;28;45314;-61
2023/04/23 03:45:03;;;;;;;;;5.50;5.00;;;;;12.50;53.24;100260.16;5060663;28;45521;-61
2023/04/23 03:47:29;;;;;;;;;5.25;5.25;;;;;12.52;52.99;100268.00;5060664;28;45404;-62
2023/04/23 03:49:54;;;;;;;;;5.75;5.00;;;;;12.48;53.15;100258.47;5060640;28;45358;-62
2023/04/23 03:52:20;;;;;;;;;5.75;4.50;;;;;12.48;53.14;100259.31;5042747;28;45497;-61
2023/04/23 03:54:45;;;;;;;;;6.25;4.00;;;;;12.47;52.89;100262.03;5060292;28;45542;-62
2023/04/23 03:57:13;;;;;;;;;6.25;4.50;;;;;12.43;52.93;100250.69;5042558;28;45341;-62
2023/04/23 03:59:39;;;;;;;;;6.25;5.00;;;;;12.42;53.11;100256.03;5060387;28;45292;-62
2023/04/23 04:02:05;;;;;;;;;4.00;4.00;;;;;12.42;52.88;100250.75;5042305;28;45241;-61
2023/04/23 04:04:31;;;;;;;;;6.25;4.00;;;;;12.39;52.99;100259.63;5060273;28;47028;-62
2023/04/23 04:06:56;;;;;;;;;3.50;3.25;;;;;12.33;52.82;100247.47;5060420;28;45381;-61
2023/04/23 04:09:22;;;;;;;;;5.00;4.00;;;;;12.28;53.21;100249.38;5060085;28;45277;-61
2023/04/23 04:11:47;;;;;;;;;3.00;3.00;;;;;12.27;53.31;100266.09;5060493;28;45372;-62
2023/04/23 04:14:13;;;;;;;;;5.00;4.75;;;;;12.19;53.27;100252.28;5059845;28;45366;-62
2023/04/23 04:16:39;;;;;;;;;4.75;4.75;;;;;12.19;53.08;100252.28;5060371;28;45292;-62
2023/04/23 04:19:04;;;;;;;;;3.00;3.00;;;;;12.19;53.21;100239.97;5042231;28;45570;-62
2023/04/23 04:21:31;;;;;;;;;4.25;3.75;;;;;12.16;53.30;100247.09;5041538;28;45265;-61
2023/04/23 04:23:56;;;;;;;;;4.00;4.00;;;;;12.15;52.90;100235.69;5059805;28;45416;-62
2023/04/23 04:26:21;;;;;;;;;5.25;3.00;;;;;12.11;53.41;100236.72;5060076;28;45248;-61
2023/04/23 04:28:47;;;;;;;;;3.75;3.75;;;;;12.08;53.52;100234.16;5059959;28;45268;-61
2023/04/23 04:31:14;;;;;;;;;4.00;3.00;;;;;12.07;53.46;100232.41;5060157;28;45474;-62
2023/04/23 04:33:40;;;;;;;;;4.00;3.00;;;;;12.04;53.61;100229.88;5059997;28;46634;-62
2023/04/23 04:36:08;;;;;;;;;3.50;3.50;;;;;12.02;53.34;100229.03;5060087;28;45304;-61
2023/04/23 04:38:36;;;;;;;;;4.00;4.00;;;;;11.99;53.32;100218.63;5059748;28;45282;-61
2023/04/23 04:41:02;;;;;;;;;4.00;4.00;;;;;11.99;53.51;100230.00;5059829;28;45151;-62
2023/04/23 04:43:27;;;;;;;;;2.00;2.00;;;;;11.98;53.54;100225.63;5058082;28;46809;-61
2023/04/23 04:45:52;;;;;;;;;3.75;3.50;;;;;11.92;53.49;100217.03;5059989;28;45298;-62
2023/04/23 04:48:18;;;;;;;;;7.75;4.50;;;;;11.95;53.45;100223.06;5041658;28;45317;-62
2023/04/23 04:50:43;;;;;;;;;3.00;3.00;;;;;11.95;53.51;100222.19;5041802;28;45521;-61
2023/04/23 04:53:09;;;;;;;;;5.00;4.75;;;;;11.93;53.56;100216.97;5059141;28;46235;-62
2023/04/23 04:55:34;;;;;;;;;4.00;4.00;;;;;11.91;53.47;100218.81;5059608;28;51294;-62
2023/04/23 04:57:59;;;;;;;;;4.25;4.00;;;;;11.91;53.36;100215.28;5041256;28;45395;-61
2023/04/23 05:00:28;;;;;;;;;2.50;2.50;;;;;11.91;53.51;100202.13;5041585;28;45253;-62
2023/04/23 05:02:54;;;;;;;;;4.75;3.25;;;;;11.90;53.56;100203.03;5058176;28;47155;-61
2023/04/23 05:05:21;;;;;;;;;5.25;2.50;;;;;11.90;53.65;100192.50;5059672;28;45276;-61
2023/04/23 05:07:47;;;;;;;;;3.75;3.75;;;;;11.89;53.84;100198.69;5041486;28;45269;-62
2023/04/23 05:10:13;;;;;;;;;7.00;4.25;;;;;11.89;53.61;100199.53;5039457;28;45378;-62
2023/04/23 05:12:42;;;;;;;;;3.25;3.00;;;;;11.87;53.85;100196.06;5053814;28;46918;-61
2023/04/23 05:15:08;;;;;;;;;4.75;4.75;;;;;11.87;53.85;100202.22;5041331;28;45447;-62
2023/04/23 05:17:34;;;;;;;;;4.00;3.00;;;;;11.87;53.73;100210.13;5059449;28;45297;-62
2023/04/23 05:20:00;;;;;;;;;3.75;2.00;;;;;11.89;53.83;100204.81;5059583;28;45257;-61
2023/04/23 05:22:26;;;;;;;;;3.25;2.50;;;;;11.87;53.84;100202.22;5059179;28;45485;-61
2023/04/23 05:24:51;;;;;;;;;3.50;2.25;;;;;11.90;53.94;100205.66;5059585;28;45264;-62
2023/04/23 05:27:17;;;;;;;;;5.00;4.00;;;;;11.86;53.93;100200.50;5059309;28;45305;-62
2023/04/23 05:29:42;;;;;;;;;5.50;3.75;;;;;11.87;54.12;100206.63;5059200;28;45507;-61
2023/04/23 05:32:08;;;;;;;;;5.50;3.00;;;;;11.88;53.89;100197.81;5059278;28;46055;-61
2023/04/23 05:34:33;;;;;;;;;2.00;2.00;;;;;11.85;54.10;100203.19;5061339;28;45294;-62
2023/04/23 05:36:58;;;;;;;;;2.50;2.50;;;;;11.85;53.95;100193.50;5044439;28;45427;-62
2023/04/23 05:39:24;;;;;;;;;3.50;3.25;;;;;11.89;53.99;100201.31;5062499;28;48926;-61
2023/04/23 05:41:49;;;;;;;;;5.50;3.00;;;;;11.89;54.07;100196.06;5044452;28;46272;-61
2023/04/23 05:44:14;;;;;;;;;3.75;2.00;;;;;11.87;54.22;100185.53;5062547;28;45206;-61
2023/04/23 05:46:40;;;;;;;;;5.00;3.75;;;;;11.90;53.98;100184.59;5062591;28;45338;-61
2023/04/23 05:49:05;;;;;;;;;4.00;4.00;;;;;11.90;54.05;100177.59;5044555;28;45654;-62
2023/04/23 05:51:30;;;;;;;;;6.75;4.25;;;;;11.89;54.26;100169.72;5044242;28;46817;-61
2023/04/23 05:53:56;;;;;;;;;4.50;4.00;;;;;11.90;54.48;100166.16;5062526;28;45332;-63
2023/04/23 05:56:21;;;;;;;;;5.25;3.25;;;;;11.93;54.03;100174.00;5062547;28;45237;-63
2023/04/23 05:58:46;;;;;;;;;3.25;3.25;;;;;11.92;54.31;100177.53;5062310;28;45336;-62
2023/04/23 06:01:12;;;;;;;;;5.00;2.50;;;;;11.94;54.34;100176.56;5044300;28;46714;-62
2023/04/23 06:03:40;;;;;;;;;4.75;4.25;;;;;11.94;54.40;100181.00;5062455;28;45316;-61
2023/04/23 06:06:06;;;;;;;;;4.00;4.00;;;;;11.96;54.33;100172.16;5044172;28;45353;-62
2023/04/23 06:08:31;;;;;;;;;5.00;5.00;;;;;11.91;54.34;100165.25;5062078;28;45237;-61
2023/04/23 06:10:57;;;;;;;;;5.25;4.75;;;;;11.91;54.26;100165.25;5061839;28;45340;-62
2023/04/23 06:13:22;;;;;;;;;4.25;3.75;;;;;12.01;54.33;100178.16;5061929;28;45330;-62
2023/04/23 06:15:48;;;;;;;;;4.00;4.00;;;;;12.00;54.41;100168.53;5062247;28;45225;-62
2023/04/23 06:18:13;;;;;;;;;4.50;4.50;;;;;12.01;54.21;100172.91;5062121;28;45505;-62
2023/04/23 06:20:38;;;;;;;;;5.00;3.00;;;;;12.04;54.38;100171.94;5062041;28;46122;-61
2023/04/23 06:23:03;;;;;;;;;4.75;4.75;;;;;12.06;54.43;100174.53;5062102;28;45192;-62
2023/04/23 06:25:29;;;;;;;;;5.75;4.00;;;;;12.09;54.47;100177.94;5043898;28;45257;-62
2023/04/23 06:27:56;;;;;;;;;3.75;3.75;;;;;12.09;54.50;100172.66;5061734;28;45529;-61
2023/04/23 06:30:22;;;;;;;;;4.50;3.75;;;;;12.09;54.35;100169.16;5061800;28;45960;-62
2023/04/23 06:32:47;;;;;;;;;5.00;5.00;;;;;12.11;54.59;100160.34;5061900;28;45463;-62
2023/04/23 06:35:12;;;;;;;;;4.00;4.00;;;;;12.13;54.44;100162.91;5043804;28;45675;-62
2023/04/23 06:37:38;;;;;;;;;2.50;2.50;;;;;12.13;54.74;100152.38;5061691;28;45167;-62
2023/04/23 06:40:03;;;;;;;;;12.50;10.75;;;;;12.15;54.69;100155.81;5061444;28;45283;-62
2023/04/23 06:42:29;;;;;;;;;9.50;5.50;;;;;12.14;54.84;100165.50;5061624;28;45272;-62
2023/04/23 06:44:55;;;;;;;;;7.50;7.00;;;;;12.16;54.63;100155.78;5061346;28;45245;-62
2023/04/23 06:47:21;;;;;;;;;5.00;4.50;;;;;12.18;54.55;100156.56;5060354;28;45435;-62
2023/04/23 06:49:46;;;;;;;;;5.50;5.00;;;;;12.22;54.87;100149.44;5061610;28;45523;-61
2023/04/23 06:52:11;;;;;;;;;6.25;6.00;;;;;12.18;54.87;100138.13;5043420;28;45401;-62
2023/04/23 06:54:37;;;;;;;;;6.75;6.75;;;;;12.26;54.72;100156.34;5061569;28;45237;-61
2023/04/23 06:57:02;;;;;;;;;9.00;5.75;;;;;12.27;54.97;100162.50;5061481;28;45435;-62
2023/04/23 06:59:27;;;;;;;;;9.00;6.75;;;;;12.27;55.11;100147.53;5061110;28;46117;-64
2023/04/23 07:01:53;;;;;;;;;5.00;5.00;;;;;12.29;55.08;100145.72;5043355;28;45216;-63
2023/04/23 07:04:18;;;;;;;;;8.25;7.00;;;;;12.30;55.04;100158.00;5061466;28;45224;-63
2023/04/23 07:06:43;;;;;;;;;5.25;5.00;;;;;12.26;55.33;100144.94;5061278;28;45167;-63
2023/04/23 07:09:09;;;;;;;;;7.25;4.75;;;;;12.26;55.35;100140.53;5060967;28;45608;-64
2023/04/23 07:11:35;;;;;;;;;7.50;7.25;;;;;12.28;55.32;100137.88;5061198;28;45202;-64
2023/04/23 07:14:01;;;;;;;;;13.50;9.75;;;;;12.24;55.56;100144.13;5060992;28;45431;-65
2023/04/23 07:16:30;;;;;;;;;6.25;6.25;;;;;12.28;55.58;100135.25;5060841;28;45442;-67
2023/04/23 07:18:56;;;;;;;;;7.50;6.25;;;;;12.30;55.27;100141.31;5042930;28;47569;-66
2023/04/23 07:21:21;;;;;;;;;7.75;7.00;;;;;12.26;55.65;100137.06;5042736;28;45252;-66
2023/04/23 07:23:46;;;;;;;;;5.00;5.00;;;;;12.30;55.61;100134.28;5061252;28;45474;-66
2023/04/23 07:26:12;;;;;;;;;7.25;6.00;;;;;12.27;55.67;100121.19;5061036;28;45543;-64
2023/04/23 07:28:37;;;;;;;;;7.75;7.50;;;;;12.29;55.67;100129.91;5047689;28;45262;-65
2023/04/23 07:31:03;;;;;;;;;8.25;8.25;;;;;12.30;55.52;100134.28;5040694;28;45227;-65
2023/04/23 07:33:28;;;;;;;;;8.50;8.00;;;;;12.28;55.81;100122.06;5040796;28;45442;-65
2023/04/23 07:35:54;;;;;;;;;12.00;7.00;;;;;12.30;55.83;100122.88;5040660;28;45194;-66
2023/04/23 07:38:19;;;;;;;;;10.00;9.00;;;;;12.31;55.96;100124.59;5022303;28;47746;-66
2023/04/23 07:40:46;;;;;;;;;12.00;11.00;;;;;12.31;56.07;100106.16;5040479;28;45510;-66
2023/04/23 07:43:12;;;;;;;;;8.00;8.00;;;;;12.28;55.97;100107.13;5040577;28;45303;-66
2023/04/23 07:45:38;;;;;;;;;9.75;8.75;;;;;12.33;55.83;100107.81;5029043;28;46016;-67
2023/04/23 07:48:03;;;;;;;;;8.75;8.25;;;;;12.32;55.94;100099.97;5060368;28;45808;-66
2023/04/23 07:50:29;;;;;;;;;10.00;10.00;;;;;12.32;56.08;100107.88;5042386;28;45268;-65
2023/04/23 07:52:54;;;;;;;;;6.00;6.00;;;;;12.35;56.28;100110.41;5042550;28;45434;-65
2023/04/23 07:55:20;;;;;;;;;7.25;7.00;;;;;12.34;56.49;100113.97;5042195;28;45694;-65
2023/04/23 07:57:45;;;;;;;;;11.75;11.00;;;;;12.33;56.31;100120.16;5059079;28;45981;-66
2023/04/23 08:00:12;;;;;;;;;10.50;9.00;;;;;12.39;56.50;100109.41;5060271;28;45183;-66
2023/04/23 08:02:37;;;;;;;;;10.00;9.50;;;;;12.38;56.80;100104.19;5060629;28;45289;-66
2023/04/23 08:05:03;;;;;;;;;11.00;10.25;;;;;12.35;56.83;100087.56;5060144;28;45220;-67
2023/04/23 08:07:28;;;;;;;;;15.00;13.25;;;;;12.40;57.02;100090.06;5060184;28;45258;-66
2023/04/23 08:09:54;;;;;;;;;10.50;10.50;;;;;12.41;56.76;100080.38;5060021;28;45538;-66
2023/04/23 08:12:20;;;;;;;;;9.50;9.50;;;;;12.41;56.80;100075.13;5042294;28;45424;-65
2023/04/23 08:14:46;;;;;;;;;8.00;7.50;;;;;12.43;57.10;100070.66;5060182;28;45364;-65
2023/04/23 08:17:11;;;;;;;;;10.25;9.75;;;;;12.45;57.07;100064.44;5041587;28;47687;-65
2023/04/23 08:19:37;;;;;;;;;8.50;8.50;;;;;12.43;56.85;100063.59;5059962;28;45481;-66
2023/04/23 08:22:16;;;;;;;;;10.00;10.00;;;;;12.47;56.99;100054.69;5060231;28;45431;-66
2023/04/23 08:24:42;;;;;;;;;8.75;7.75;;;;;12.48;57.04;100034.47;5041919;28;45462;-66
2023/04/23 08:27:07;;;;;;;;;9.25;8.00;;;;;12.54;56.84;100028.13;5059488;28;46383;-66
2023/04/23 08:29:33;;;;;;;;;8.75;8.50;;;;;12.54;56.97;100013.19;5039731;28;45258;-66
2023/04/23 08:31:58;;;;;;;;;13.75;13.00;;;;;12.59;57.34;100002.47;5039666;28;48397;-66
2023/04/23 08:34:23;;;;;;;;;7.75;6.25;;;;;12.62;57.09;99997.97;5039829;28;45447;-66
2023/04/23 08:36:49;;;;;;;;;12.25;9.75;;;;;12.63;57.10;99986.50;5039439;28;46413;-66
2023/04/23 08:39:14;;;;;;;;;11.50;10.25;;;;;12.71;57.35;99982.75;5021993;28;45275;-66
2023/04/23 08:41:43;;;;;;;;;11.50;10.50;;;;;12.73;57.10;99981.78;5039663;28;45519;-66
2023/04/23 08:44:17;;;;;;;;;13.25;11.75;;;;;12.77;57.39;99988.66;5046502;28;45258;-67
2023/04/23 08:46:43;;;;;;;;;13.25;12.00;;;;;12.82;57.33;99980.59;5041356;28;46710;-66
2023/04/23 08:49:14;;;;;;;;;12.25;10.00;;;;;12.82;57.51;99964.78;5041538;28;45266;-65
2023/04/23 08:51:45;;;;;;;;;12.75;10.50;;;;;12.88;57.22;99963.69;5059621;28;45162;-66
2023/04/23 08:54:14;;;;;;;;;10.50;10.50;;;;;12.88;57.41;99951.38;5059678;28;45222;-65
2023/04/23 08:56:41;;;;;;;;;10.25;8.75;;;;;12.94;57.56;99953.78;5059479;28;45311;-66
2023/04/23 08:59:07;;;;;;;;;11.75;11.75;;;;;12.94;57.52;99951.16;5041263;28;45485;-65
2023/04/23 09:01:33;;;;;;;;;13.00;13.00;;;;;12.99;57.44;99948.31;5059549;28;45423;-66
2023/04/23 09:03:59;;;;;;;;;11.50;11.25;;;;;12.98;57.67;99943.97;5041147;28;45439;-66
2023/04/23 09:06:25;;;;;;;;;12.25;11.00;;;;;13.03;57.49;99934.13;5040889;28;51143;-66
2023/04/23 09:08:52;;;;;;;;;12.75;12.50;;;;;13.05;57.38;99918.25;5043785;28;45757;-66
2023/04/23 09:11:19;;;;;;;;;16.50;15.50;;;;;13.07;57.92;99912.00;5061654;28;45296;-67
2023/04/23 09:13:44;;;;;;;;;10.50;10.50;;;;;13.11;57.93;99902.19;5044572;28;45237;-65
2023/04/23 09:16:10;;;;;;;;;10.75;10.75;;;;;13.17;57.60;99902.81;5061388;28;46403;-65
2023/04/23 09:18:36;;;;;;;;;12.75;12.75;;;;;13.21;57.78;99908.81;5062886;28;45434;-64
2023/04/23 09:21:03;;;;;;;;;11.00;11.00;;;;;13.25;57.65;99894.59;5062942;28;45301;-66
2023/04/23 09:23:30;;;;;;;;;12.00;10.75;;;;;13.29;57.85;99885.63;5044783;28;45519;-65
2023/04/23 09:25:56;;;;;;;;;13.50;11.50;;;;;13.31;58.09;99877.69;5062429;28;46974;-65
2023/04/23 09:28:33;;;;;;;;;13.25;11.50;;;;;13.38;57.74;99854.56;5062414;28;45225;-65
2023/04/23 09:30:59;;;;;;;;;12.00;9.75;;;;;13.43;57.99;99856.13;5062755;28;45340;-65
2023/04/23 09:33:27;;;;;;;;;10.00;9.00;;;;;13.44;58.16;99852.53;5044444;28;45274;-65
2023/04/23 09:35:53;;;;;;;;;9.25;9.25;;;;;13.49;58.00;99850.56;5044283;28;46972;-65
2023/04/23 09:38:18;;;;;;;;;9.00;9.00;;;;;13.51;57.98;99839.09;5044181;28;45491;-65
2023/04/23 09:40:44;;;;;;;;;11.25;10.75;;;;;13.58;58.27;99845.84;5062431;28;45412;-65
2023/04/23 09:43:10;;;;;;;;;12.75;10.75;;;;;13.59;58.27;99837.84;5044318;28;45321;-65
2023/04/23 09:45:35;;;;;;;;;11.25;10.00;;;;;13.62;57.63;99829.81;5044297;28;45950;-65
2023/04/23 09:48:01;;;;;;;;;7.00;7.00;;;;;13.62;57.90;99823.66;5062561;28;45442;-65
2023/04/23 09:50:38;;;;;;;;;9.00;8.50;;;;;13.61;57.93;99817.53;5062625;28;45151;-65
2023/04/23 09:53:07;;;;;;;;;9.50;8.75;;;;;13.65;58.01;99811.22;5062398;28;45415;-65
2023/04/23 09:55:36;;;;;;;;;12.50;12.50;;;;;13.66;58.10;99814.72;5062011;28;46156;-65
2023/04/23 09:58:09;;;;;;;;;11.75;9.50;;;;;13.71;57.66;99806.59;5060629;28;45264;-66
2023/04/23 10:00:36;;;;;;;;;10.75;10.00;;;;;13.70;57.88;99816.31;5062459;28;45438;-65
2023/04/23 10:03:02;;;;;;;;;11.50;11.25;;;;;13.70;57.94;99820.72;5043856;28;45412;-65
2023/04/23 10:05:28;;;;;;;;;14.00;12.00;;;;;13.68;57.89;99804.09;5062048;28;45257;-65
2023/04/23 10:07:56;;;;;;;;;14.25;12.50;;;;;13.72;57.93;99806.56;5043849;28;45250;-65
2023/04/23 10:10:22;;;;;;;;;12.00;10.50;;;;;13.73;57.77;99804.75;5061806;28;45330;-65
2023/04/23 10:12:50;;;;;;;;;12.00;12.00;;;;;13.74;58.03;99794.13;5061591;28;45359;-65
2023/04/23 10:15:15;;;;;;;;;10.00;10.00;;;;;13.73;57.65;99797.69;5061959;28;45233;-64
2023/04/23 10:17:41;;;;;;;;;10.25;9.75;;;;;13.69;57.92;99785.53;5043808;28;45252;-64
2023/04/23 10:20:07;;;;;;;;;11.25;11.25;;;;;13.74;57.89;99788.00;5043195;28;45190;-65
2023/04/23 10:22:36;;;;;;;;;10.00;8.25;;;;;13.74;58.30;99780.06;5061838;28;45369;-66
2023/04/23 10:25:09;;;;;;;;;10.00;8.75;;;;;13.74;57.81;99782.72;5043527;28;47514;-65
2023/04/23 10:27:38;;;;;;;;;20.50;18.50;;;;;13.73;57.59;99781.00;5043301;28;45252;-65
2023/04/23 10:30:05;;;;;;;;;9.75;9.00;;;;;13.71;58.00;99765.22;5043660;28;45385;-65
2023/04/23 10:32:32;;;;;;;;;10.50;7.25;;;;;13.72;57.62;99774.00;5043803;28;45264;-64
2023/04/23 10:34:57;;;;;;;;;9.25;8.75;;;;;13.73;57.89;99758.06;5059721;28;48310;-65
2023/04/23 10:37:24;;;;;;;;;6.75;6.25;;;;;13.72;57.57;99750.22;5061418;28;45342;-65
2023/04/23 10:39:54;;;;;;;;;8.00;8.00;;;;;13.74;57.68;99751.88;5061795;28;45342;-63
2023/04/23 10:42:20;;;;;;;;;6.00;6.00;;;;;13.74;57.92;99737.84;5061293;28;45438;-63
2023/04/23 10:44:45;;;;;;;;;7.50;7.50;;;;;13.75;57.71;99729.00;5061522;28;46574;-63
2023/04/23 10:47:13;;;;;;;;;7.25;7.25;;;;;13.74;57.55;99757.16;5043114;28;45267;-63
2023/04/23 10:49:38;;;;;;;;;5.50;5.00;;;;;13.74;57.63;99736.03;5043594;28;45269;-63
2023/04/23 10:52:08;;;;;;;;;6.50;6.50;;;;;13.78;58.04;99715.63;5061335;28;45272;-63
2023/04/23 10:54:35;;;;;;;;;7.00;7.00;;;;;13.81;57.49;99718.13;5061202;28;46417;-63
2023/04/23 10:57:05;;;;;;;;;8.25;8.00;;;;;13.85;57.89;99739.97;5043067;28;45298;-63
2023/04/23 10:59:38;;;;;;;;;9.75;8.75;;;;;13.88;57.96;99724.88;5043112;28;45355;-62
2023/04/23 11:02:11;;;;;;;;;11.25;9.25;;;;;13.92;57.78;99707.97;5043273;28;45476;-64
2023/04/23 11:04:43;;;;;;;;;9.75;7.00;;;;;14.01;57.57;99695.28;5061121;28;45251;-62
2023/04/23 11:07:10;;;;;;;;;6.50;6.00;;;;;14.06;58.05;99674.78;5061269;28;45354;-64
2023/04/23 11:09:41;;;;;;;;;5.75;4.25;;;;;14.14;57.54;99685.88;5061046;28;45460;-62
2023/04/23 11:12:08;;;;;;;;;5.50;5.50;;;;;14.21;57.51;99683.81;5043003;28;45363;-63
2023/04/23 11:14:37;;;;;;;;;5.75;4.75;;;;;14.26;57.57;99674.75;5060483;28;45286;-65
2023/04/23 11:17:05;;;;;;;;;5.25;4.50;;;;;14.29;57.49;99664.03;5061127;28;45391;-63
2023/04/23 11:19:34;;;;;;;;;7.25;5.00;;;;;14.37;57.74;99661.00;5059727;28;45304;-63